Terminal Aerodrome Forecast
Issued by NWS

Home | Current Version | Previous Version | Text Only | Print | Product List | Glossary On
Versions: 1 2 3 4 5 6 7 8 9 10 11 12 13 14 15 16 17 18 19 20 21 22 23 24
644
FTUS43 KMQT 271720
TAFSAW
TAF
KSAW 271720Z 2718/2818 19010KT P6SM BKN030
     FM271900 19010KT P6SM BKN035
     FM280700 19006KT P6SM OVC030
     FM281200 17007KT 2SM -SN OVC003
     FM281300 17007KT 1 1/2SM -RASN OVC008
     FM281500 17007KT 1 1/2SM -RA OVC003=

USA.gov is the U.S. government's official web portal to all federal, state and local government web resources and services.